This is the latest recevied weather packets stored in our database for station/object N4LLZ-13. If no packets are shown the sender has not sent any weather packets the latest 1 day(s).
| Time | Temp. | Humidity | Pressure | Rain* | Wind** | Luminosity | Snow |
|---|---|---|---|---|---|---|---|
| 1778079240 | 22.22° C | 64% | 1014.9 hPa | 0 mm | - | - | - |
| 1778078037 | 21.67° C | 68% | 1015 hPa | 0 mm | - | - | - |
| 1778077736 | 21.11° C | 68% | 1015.1 hPa | 0 mm | - | - | - |
| 1778077435 | 21.11° C | 69% | 1015.1 hPa | 0 mm | - | - | - |
| 1778077134 | 20.56° C | 70% | 1015.1 hPa | 0 mm | - | - | - |
| 1778076833 | 20.56° C | 70% | 1015.2 hPa | 0 mm | - | - | - |
| 1778076231 | 20.56° C | 70% | 1015.3 hPa | 0 mm | - | - | - |
| 1778074426 | 18.89° C | 75% | 1015.5 hPa | 0 mm | - | - | - |
| 1778074125 | 18.89° C | 76% | 1015.5 hPa | 0 mm | - | - | - |
| 1778073824 | 18.89° C | 76% | 1015.5 hPa | 0 mm | - | - | - |
| 1778073523 | 18.89° C | 76% | 1015.5 hPa | 0 mm | - | - | - |
| 1778072320 | 18.89° C | 76% | 1014.9 hPa | 0 mm | - | - | - |
| 1778072019 | 18.89° C | 76% | 1014.9 hPa | 0 mm | - | - | - |
| 1778071417 | 18.33° C | 78% | 1014.8 hPa | 0 mm | - | - | - |
| 1778069913 | 17.78° C | 81% | 1014.7 hPa | 0 mm | - | - | - |
| 1778069612 | 17.78° C | 81% | 1014.6 hPa | 0 mm | - | - | - |
| 1778068409 | 17.22° C | 83% | 1014.5 hPa | 0 mm | - | - | - |
| 1778068108 | 17.22° C | 83% | 1014.6 hPa | 0 mm | - | - | - |
| 1778066905 | 16.11° C | 87% | 1014.7 hPa | 0 mm | - | - | - |
| 1778066604 | 16.11° C | 87% | 1014.6 hPa | 0 mm | - | - | - |
| 1778066002 | 16.11° C | 87% | 1014.6 hPa | 0 mm | - | - | - |
| 1778065401 | 16.11° C | 87% | 1014.6 hPa | 0 mm | - | - | - |
| 1778065100 | 16.11° C | 88% | 1014.6 hPa | 0 mm | - | - | - |
| 1778064498 | 15.56° C | 89% | 1014.3 hPa | 0 mm | - | - | - |
| 1778063897 | 15.56° C | 89% | 1014.4 hPa | 0 mm | - | - | - |
* Rain latest hour (hover to see other rain measurements)
** Current wind speed in m/s (hover to see current wind gust speed)